createdAt,value
2018-08-12T00:00:07.858Z,7.20
2018-08-12T00:10:09.887Z,3.83
2018-08-12T00:20:11.148Z,6.67
2018-08-12T00:50:31.548Z,8.20
2018-08-12T01:00:33.565Z,6.17
2018-08-12T01:10:35.627Z,4.00
2018-08-12T01:20:36.952Z,5.23
2018-08-12T01:30:38.183Z,4.87
2018-08-12T01:40:39.428Z,6.70
2018-08-12T01:50:40.751Z,6.40
2018-08-12T02:00:42.919Z,5.80
2018-08-12T02:10:44.182Z,5.30
2018-08-12T02:30:52.004Z,4.50
2018-08-12T02:40:53.283Z,3.83
2018-08-12T02:50:55.306Z,3.93
2018-08-12T03:00:56.542Z,4.90
2018-08-12T03:10:57.957Z,4.47
2018-08-12T03:21:00.272Z,7.90
2018-08-12T03:31:01.511Z,5.43
2018-08-12T03:41:02.778Z,3.90
2018-08-12T03:51:04.177Z,7.77
2018-08-12T04:01:05.434Z,5.27
2018-08-12T04:11:06.866Z,6.80
2018-08-12T04:21:08.125Z,5.67
2018-08-12T04:31:09.385Z,7.73
2018-08-12T04:41:10.641Z,8.37
2018-08-12T04:51:12.030Z,6.13
2018-08-12T05:01:13.253Z,5.67
2018-08-12T05:11:14.474Z,4.13
2018-08-12T05:21:15.716Z,3.63
2018-08-12T05:31:16.981Z,6.67
2018-08-12T05:41:21.376Z,3.67
2018-08-12T06:01:29.881Z,6.93
2018-08-12T06:11:32.356Z,3.90
2018-08-12T06:21:33.626Z,3.20
2018-08-12T06:41:47.077Z,7.93
2018-08-12T07:01:55.788Z,3.17
2018-08-12T07:11:57.042Z,3.53
2018-08-12T07:32:06.748Z,2.95
2018-08-12T07:42:08.016Z,4.12
2018-08-12T07:52:09.281Z,3.28
2018-08-12T08:22:25.122Z,4.20
2018-08-12T08:32:26.350Z,4.40
2018-08-12T08:42:28.352Z,2.75
2018-08-12T08:52:29.605Z,2.30
2018-08-12T09:02:30.844Z,3.67
2018-08-12T09:22:44.890Z,2.17
2018-08-12T09:32:46.320Z,3.30
2018-08-12T09:42:48.363Z,2.22
2018-08-12T09:52:49.614Z,2.55
2018-08-12T10:02:50.898Z,3.10
2018-08-12T10:23:03.027Z,3.50
2018-08-12T10:33:05.042Z,3.03
2018-08-12T10:43:07.065Z,2.78
2018-08-12T10:53:09.131Z,2.28
2018-08-12T11:03:10.403Z,3.62
2018-08-12T11:13:11.655Z,3.35
2018-08-12T11:23:12.919Z,2.60
2018-08-12T11:33:14.218Z,2.60
2018-08-12T11:43:15.523Z,2.72
2018-08-12T11:53:16.937Z,3.12
2018-08-12T12:03:18.202Z,2.12
2018-08-12T12:13:19.459Z,2.40
2018-08-12T12:23:20.729Z,2.15
2018-08-12T12:33:21.967Z,4.25
2018-08-12T12:43:24.147Z,3.35
2018-08-12T12:53:25.403Z,3.62
2018-08-12T13:03:27.063Z,2.83
2018-08-12T13:13:28.582Z,3.67
2018-08-12T13:23:29.838Z,4.90
2018-08-12T13:33:31.093Z,2.72
2018-08-12T13:43:32.394Z,2.78
2018-08-12T13:53:33.698Z,3.10
2018-08-12T14:03:34.965Z,5.43
2018-08-12T14:13:37.004Z,3.83
2018-08-12T14:23:38.275Z,2.87
2018-08-12T14:33:39.629Z,3.20
2018-08-12T14:43:40.875Z,3.28
2018-08-12T14:53:42.162Z,5.20
2018-08-12T15:03:44.182Z,3.90
2018-08-12T15:13:45.434Z,3.40
2018-08-12T15:23:46.904Z,3.30
2018-08-12T15:33:49.648Z,3.65
2018-08-12T15:43:50.942Z,4.12
2018-08-12T15:53:52.211Z,5.28
2018-08-12T16:03:53.511Z,5.65
2018-08-12T16:13:54.782Z,4.22
2018-08-12T16:23:56.840Z,4.32
2018-08-12T16:33:58.094Z,4.40
2018-08-12T16:43:59.347Z,5.20
2018-08-12T16:54:00.591Z,6.65
2018-08-12T17:04:01.915Z,5.65
2018-08-12T17:14:03.110Z,8.35
2018-08-12T17:24:04.471Z,7.75
2018-08-12T17:34:06.506Z,7.20
2018-08-12T17:44:07.830Z,6.23
2018-08-12T17:54:09.101Z,6.03
2018-08-12T18:04:10.517Z,9.57
2018-08-12T18:14:11.785Z,9.03
2018-08-12T18:24:13.058Z,7.17
2018-08-12T18:34:17.114Z,7.43
2018-08-12T18:44:18.468Z,9.53
2018-08-12T18:54:19.755Z,7.03
2018-08-12T19:04:21.023Z,8.00
2018-08-12T19:14:23.151Z,8.93
2018-08-12T19:24:24.413Z,8.67
2018-08-12T19:34:25.804Z,10.80
2018-08-12T19:44:27.306Z,8.63
2018-08-12T19:54:28.532Z,8.37
2018-08-12T20:04:29.790Z,7.70
2018-08-12T20:14:31.046Z,12.30
2018-08-12T20:24:32.315Z,9.77
2018-08-12T20:34:33.573Z,11.13
2018-08-12T20:44:34.837Z,10.73
2018-08-12T20:54:36.076Z,11.00
2018-08-12T21:04:37.333Z,12.07
2018-08-12T21:14:38.584Z,11.63
2018-08-12T21:24:39.842Z,12.47
2018-08-12T21:34:41.102Z,13.97
2018-08-12T21:44:42.380Z,12.23
2018-08-12T21:54:43.637Z,14.30
2018-08-12T22:04:44.903Z,13.20
2018-08-12T22:14:46.168Z,14.87
2018-08-12T22:24:47.445Z,11.30
2018-08-12T22:34:48.774Z,13.33
2018-08-12T22:44:50.032Z,10.70
2018-08-12T22:54:52.090Z,11.83
2018-08-12T23:04:53.354Z,14.67
2018-08-12T23:14:54.590Z,11.50
2018-08-12T23:24:55.846Z,11.97
2018-08-12T23:34:57.113Z,12.23
2018-08-12T23:44:59.157Z,13.33
2018-08-12T23:55:00.436Z,9.80
